createdAt,value
2019-06-26T00:00:42.487Z,76.60
2019-06-26T00:03:14.978Z,76.50
2019-06-26T00:06:09.670Z,76.40
2019-06-26T00:08:41.862Z,76.30
2019-06-26T00:11:14.111Z,76.50
2019-06-26T00:13:46.159Z,76.40
2019-06-26T00:16:18.446Z,76.40
2019-06-26T00:18:50.545Z,76.50
2019-06-26T00:21:23.356Z,76.30
2019-06-26T00:23:55.706Z,76.30
2019-06-26T00:26:28.171Z,76.30
2019-06-26T00:29:00.405Z,76.10
2019-06-26T00:31:32.946Z,76.20
2019-06-26T00:34:05.644Z,76.10
2019-06-26T00:36:37.851Z,76.10
2019-06-26T00:39:12.191Z,76.00
2019-06-26T00:41:44.243Z,75.60
2019-06-26T00:44:16.452Z,75.40
2019-06-26T00:46:48.844Z,75.50
2019-06-26T00:49:21.309Z,75.40
2019-06-26T00:51:53.931Z,75.70
2019-06-26T00:54:26.352Z,75.10
2019-06-26T00:56:58.444Z,74.90
2019-06-26T00:59:30.633Z,75.00
2019-06-26T01:02:02.877Z,74.60
2019-06-26T01:04:36.194Z,74.50
2019-06-26T01:07:09.940Z,74.30
2019-06-26T01:09:42.137Z,74.20
2019-06-26T01:12:14.721Z,74.10
2019-06-26T01:14:46.967Z,74.00
2019-06-26T01:17:19.028Z,74.00
2019-06-26T01:19:50.955Z,73.60
2019-06-26T01:22:22.999Z,74.20
2019-06-26T01:24:55.127Z,73.90
2019-06-26T01:27:27.689Z,73.40
2019-06-26T01:29:59.678Z,73.20
2019-06-26T01:32:31.817Z,73.30
2019-06-26T01:35:04.268Z,73.40
2019-06-26T01:37:36.512Z,73.10
2019-06-26T01:40:11.101Z,73.10
2019-06-26T01:43:07.506Z,72.80
2019-06-26T01:45:40.064Z,72.90
2019-06-26T01:48:12.577Z,72.80
2019-06-26T01:50:45.040Z,72.80
2019-06-26T01:53:17.628Z,72.30
2019-06-26T01:55:49.772Z,72.40
2019-06-26T01:58:22.104Z,72.10
2019-06-26T02:00:54.504Z,72.30
2019-06-26T02:03:26.991Z,71.90
2019-06-26T02:05:59.659Z,72.10
2019-06-26T02:08:36.380Z,72.50
2019-06-26T02:11:06.233Z,71.30
2019-06-26T02:13:39.259Z,71.60
2019-06-26T02:16:12.005Z,71.80
2019-06-26T02:18:45.398Z,71.80
2019-06-26T02:21:17.948Z,71.70
2019-06-26T02:23:50.008Z,71.40
2019-06-26T02:26:22.343Z,71.20
2019-06-26T02:28:54.845Z,71.20
2019-06-26T02:31:27.300Z,70.50
2019-06-26T02:33:59.545Z,70.80
2019-06-26T02:36:31.931Z,71.10
2019-06-26T02:39:03.958Z,70.10
2019-06-26T02:41:37.019Z,70.00
2019-06-26T02:44:09.457Z,69.80
2019-06-26T02:46:42.400Z,69.50
2019-06-26T02:49:14.858Z,69.00
2019-06-26T02:51:47.468Z,68.90
2019-06-26T02:54:23.579Z,68.90
2019-06-26T02:56:55.656Z,68.40
2019-06-26T02:59:28.935Z,67.40
2019-06-26T03:02:04.210Z,67.30
2019-06-26T03:04:37.165Z,69.50
2019-06-26T03:07:12.367Z,68.10
2019-06-26T03:09:44.638Z,69.30
2019-06-26T03:12:16.740Z,67.10
2019-06-26T03:14:49.047Z,67.80
2019-06-26T03:17:21.181Z,68.80
2019-06-26T03:19:53.288Z,68.90
2019-06-26T03:22:25.196Z,66.20
2019-06-26T03:24:57.500Z,67.40
2019-06-26T03:27:29.404Z,68.40
2019-06-26T03:30:01.449Z,67.00
2019-06-26T03:32:33.964Z,67.60
2019-06-26T03:35:06.602Z,66.50
2019-06-26T03:37:38.810Z,67.00
2019-06-26T03:40:12.063Z,66.70
2019-06-26T03:42:44.188Z,67.00
2019-06-26T03:45:25.830Z,66.80
2019-06-26T03:47:53.510Z,66.40
2019-06-26T03:50:44.676Z,65.80
2019-06-26T03:53:24.485Z,65.50
2019-06-26T03:55:56.723Z,65.90
2019-06-26T03:58:28.934Z,65.10
2019-06-26T04:01:01.832Z,64.50
2019-06-26T04:03:45.950Z,64.30
2019-06-26T04:06:18.066Z,64.40
2019-06-26T04:08:50.005Z,63.70
2019-06-26T04:11:22.229Z,63.20
2019-06-26T04:13:54.516Z,63.40
2019-06-26T04:16:26.776Z,62.70
2019-06-26T04:19:00.133Z,62.30
2019-06-26T04:21:32.541Z,62.10
2019-06-26T04:24:23.871Z,62.40
2019-06-26T04:27:01.735Z,61.70
2019-06-26T04:29:34.236Z,61.70
2019-06-26T04:32:06.277Z,61.30
2019-06-26T04:34:38.616Z,60.90
2019-06-26T04:37:11.167Z,59.90
2019-06-26T04:40:04.670Z,59.50
2019-06-26T04:42:36.911Z,59.00
2019-06-26T04:45:16.129Z,58.60
2019-06-26T04:47:48.681Z,58.80
2019-06-26T04:50:21.964Z,58.30
2019-06-26T04:52:53.995Z,57.20
2019-06-26T04:55:32.931Z,57.00
2019-06-26T04:58:05.075Z,56.70
2019-06-26T05:00:57.481Z,56.50
2019-06-26T05:03:29.881Z,55.90
2019-06-26T05:06:07.628Z,55.60
2019-06-26T05:08:40.302Z,55.50
2019-06-26T05:11:13.538Z,56.00
2019-06-26T05:13:48.321Z,55.60
2019-06-26T05:16:20.991Z,55.00
2019-06-26T05:18:55.993Z,54.60
2019-06-26T05:21:30.384Z,54.80
2019-06-26T05:24:02.377Z,54.40
2019-06-26T05:26:35.616Z,54.00
2019-06-26T05:29:09.292Z,53.70
2019-06-26T05:31:47.157Z,54.60
2019-06-26T05:34:19.994Z,54.40
2019-06-26T05:37:01.002Z,53.70
2019-06-26T05:39:33.148Z,54.20
2019-06-26T05:42:08.902Z,52.90
2019-06-26T05:44:46.497Z,52.60
2019-06-26T05:47:22.135Z,52.70
2019-06-26T05:50:15.310Z,53.70
2019-06-26T05:52:47.672Z,52.40
2019-06-26T05:55:21.025Z,53.10
2019-06-26T05:57:52.933Z,52.10
2019-06-26T06:00:26.082Z,52.20
2019-06-26T06:02:59.229Z,52.20
2019-06-26T06:05:32.468Z,51.20
2019-06-26T06:08:04.480Z,52.20
2019-06-26T06:10:37.098Z,53.00
2019-06-26T06:13:09.678Z,52.90
2019-06-26T06:15:42.252Z,53.30
2019-06-26T06:18:14.274Z,54.20
2019-06-26T06:20:46.556Z,53.40
2019-06-26T06:23:19.753Z,53.90
2019-06-26T06:25:52.082Z,53.90
2019-06-26T06:28:24.003Z,53.00
2019-06-26T06:31:16.132Z,53.80
2019-06-26T06:33:48.706Z,53.80
2019-06-26T06:36:21.055Z,53.80
2019-06-26T06:38:53.322Z,53.20
2019-06-26T06:41:25.191Z,53.80
2019-06-26T06:44:00.637Z,54.20
2019-06-26T06:46:37.642Z,53.80
2019-06-26T06:49:09.943Z,53.60
2019-06-26T06:51:42.091Z,53.80
2019-06-26T06:54:14.438Z,53.70
2019-06-26T06:57:06.726Z,53.70
2019-06-26T06:59:39.639Z,54.20
2019-06-26T07:02:11.969Z,53.80
2019-06-26T07:04:50.523Z,54.00
2019-06-26T07:07:22.969Z,54.10
2019-06-26T07:09:59.340Z,54.40
2019-06-26T07:12:32.011Z,54.10
2019-06-26T07:15:04.156Z,53.30
2019-06-26T07:17:36.889Z,53.40
2019-06-26T07:20:10.740Z,53.20
2019-06-26T07:23:02.203Z,52.90
2019-06-26T07:25:34.331Z,52.50
2019-06-26T07:28:07.029Z,52.60
2019-06-26T07:30:39.237Z,52.50
2019-06-26T07:33:31.518Z,51.70
2019-06-26T07:36:03.947Z,51.50
2019-06-26T07:38:35.857Z,51.20
2019-06-26T07:41:08.312Z,51.10
2019-06-26T07:43:40.821Z,51.30
2019-06-26T07:46:12.785Z,51.40
2019-06-26T07:48:45.026Z,52.10
2019-06-26T07:51:17.680Z,51.70
2019-06-26T07:53:49.672Z,51.40
2019-06-26T07:56:21.806Z,51.40
2019-06-26T07:58:54.620Z,51.10
2019-06-26T08:01:27.594Z,51.20
2019-06-26T08:04:00.502Z,51.20
2019-06-26T08:06:32.717Z,51.00
2019-06-26T08:09:05.742Z,50.90
2019-06-26T08:11:38.164Z,51.20
2019-06-26T08:14:14.333Z,50.70
2019-06-26T08:16:46.546Z,50.30
2019-06-26T08:19:18.661Z,50.90
2019-06-26T08:21:51.136Z,50.10
2019-06-26T08:24:42.344Z,50.30
2019-06-26T08:27:15.087Z,50.40
2019-06-26T08:29:47.511Z,49.90
2019-06-26T08:32:19.685Z,50.10
2019-06-26T08:34:52.349Z,50.40
2019-06-26T08:37:24.414Z,50.00
2019-06-26T08:39:56.525Z,49.90
2019-06-26T08:42:29.453Z,49.70
2019-06-26T08:45:02.098Z,49.60
2019-06-26T08:47:34.720Z,49.80
2019-06-26T08:50:09.582Z,50.00
2019-06-26T08:52:44.986Z,50.20
2019-06-26T08:55:17.416Z,50.30
2019-06-26T08:57:49.223Z,50.10
2019-06-26T09:00:42.048Z,50.30
2019-06-26T09:03:14.978Z,50.40
2019-06-26T09:05:48.707Z,50.10
2019-06-26T09:08:21.486Z,50.20
2019-06-26T09:10:53.800Z,50.30
2019-06-26T09:13:27.246Z,50.60
2019-06-26T09:15:59.498Z,51.80
2019-06-26T09:18:35.742Z,50.60
2019-06-26T09:21:05.623Z,50.20
2019-06-26T09:23:38.327Z,50.00
2019-06-26T09:26:10.669Z,50.10
2019-06-26T09:28:42.874Z,50.10
2019-06-26T09:31:15.045Z,50.60
2019-06-26T09:33:47.028Z,50.30
2019-06-26T09:36:19.485Z,50.70
2019-06-26T09:38:51.417Z,50.50
2019-06-26T09:41:32.919Z,51.10
2019-06-26T09:44:05.257Z,50.80
2019-06-26T09:46:37.273Z,50.80
2019-06-26T09:49:09.742Z,51.30
2019-06-26T09:51:41.765Z,51.10
2019-06-26T09:54:14.320Z,51.30
2019-06-26T09:56:47.086Z,51.40
2019-06-26T09:59:19.287Z,51.50
2019-06-26T10:02:11.656Z,51.80
2019-06-26T10:04:44.718Z,51.50
2019-06-26T10:07:17.201Z,51.60
2019-06-26T10:09:50.791Z,51.50
2019-06-26T10:12:24.544Z,51.80
2019-06-26T10:14:56.817Z,51.80
2019-06-26T10:17:29.029Z,52.00
2019-06-26T10:20:00.925Z,52.20
2019-06-26T10:22:32.968Z,52.50
2019-06-26T10:25:05.611Z,52.70
2019-06-26T10:27:37.961Z,52.90
2019-06-26T10:30:10.760Z,52.40
2019-06-26T10:32:42.902Z,52.80
2019-06-26T10:35:16.400Z,53.00
2019-06-26T10:37:48.267Z,53.00
2019-06-26T10:40:20.707Z,53.30
2019-06-26T10:42:53.217Z,53.90
2019-06-26T10:45:25.566Z,53.30
2019-06-26T10:48:16.759Z,52.90
2019-06-26T10:50:57.145Z,53.00
2019-06-26T10:53:23.852Z,52.90
2019-06-26T10:55:56.209Z,52.70
2019-06-26T10:58:28.371Z,52.80
2019-06-26T11:01:01.183Z,53.10
2019-06-26T11:03:36.061Z,52.90
2019-06-26T11:06:08.250Z,53.30
2019-06-26T11:08:40.496Z,53.70
2019-06-26T11:11:12.510Z,53.10
2019-06-26T11:13:45.178Z,53.60
2019-06-26T11:16:17.332Z,53.20
2019-06-26T11:18:49.597Z,53.40
2019-06-26T11:21:21.729Z,53.30
2019-06-26T11:23:54.041Z,53.30
2019-06-26T11:26:26.320Z,53.70
2019-06-26T11:28:58.231Z,53.60
2019-06-26T11:31:30.366Z,54.10
2019-06-26T11:34:02.590Z,54.30
2019-06-26T11:36:34.462Z,54.20
2019-06-26T11:39:08.768Z,54.70
2019-06-26T11:41:59.750Z,54.50
2019-06-26T11:44:39.092Z,54.70
2019-06-26T11:47:11.093Z,55.10
2019-06-26T11:49:59.102Z,55.50
2019-06-26T11:52:38.361Z,55.40
2019-06-26T11:55:13.541Z,55.70
2019-06-26T11:57:45.857Z,56.00
2019-06-26T12:00:21.518Z,55.70
2019-06-26T12:02:53.823Z,56.00
2019-06-26T12:05:26.450Z,56.00
2019-06-26T12:07:58.619Z,56.10
2019-06-26T12:10:31.061Z,56.10
2019-06-26T12:13:04.326Z,56.20
2019-06-26T12:15:36.535Z,56.40
2019-06-26T12:18:08.536Z,56.50
2019-06-26T12:20:41.018Z,56.50
2019-06-26T12:23:13.027Z,56.30
2019-06-26T12:25:45.107Z,56.60
2019-06-26T12:28:20.535Z,56.50
2019-06-26T12:30:52.725Z,56.70
2019-06-26T12:33:25.058Z,57.00
2019-06-26T12:35:57.312Z,56.70
2019-06-26T12:38:29.679Z,57.00
2019-06-26T12:41:22.071Z,57.10
2019-06-26T12:43:54.188Z,57.30
2019-06-26T12:46:26.245Z,57.40
2019-06-26T12:48:59.228Z,57.60
2019-06-26T12:51:31.607Z,57.20
2019-06-26T12:54:03.550Z,57.10
2019-06-26T12:56:36.083Z,57.50
2019-06-26T12:59:08.636Z,58.40
2019-06-26T13:01:41.327Z,57.50
2019-06-26T13:04:13.961Z,57.80
2019-06-26T13:06:45.881Z,57.90
2019-06-26T13:09:18.137Z,57.70
2019-06-26T13:11:50.344Z,57.50
2019-06-26T13:14:22.271Z,57.80
2019-06-26T13:16:54.671Z,57.60
2019-06-26T13:19:27.285Z,57.70
2019-06-26T13:21:59.815Z,57.50
2019-06-26T13:24:32.230Z,58.00
2019-06-26T13:27:04.550Z,58.30
2019-06-26T13:29:36.767Z,57.80
2019-06-26T13:32:08.723Z,58.00
2019-06-26T13:34:40.881Z,58.20
2019-06-26T13:37:13.044Z,57.80
2019-06-26T13:39:44.925Z,58.10
2019-06-26T13:42:17.095Z,58.70
2019-06-26T13:44:49.958Z,58.60
2019-06-26T13:47:43.907Z,58.50
2019-06-26T13:50:16.319Z,57.80
2019-06-26T13:52:48.350Z,58.10
2019-06-26T13:55:20.985Z,58.40
2019-06-26T13:57:53.004Z,58.20
2019-06-26T14:00:25.702Z,58.50
2019-06-26T14:02:58.572Z,58.20
2019-06-26T14:05:30.837Z,58.50
2019-06-26T14:08:03.068Z,58.10
2019-06-26T14:10:35.638Z,58.10
2019-06-26T14:13:07.733Z,59.00
2019-06-26T14:15:40.053Z,58.80
2019-06-26T14:18:12.650Z,58.80
2019-06-26T14:20:44.818Z,59.20
2019-06-26T14:23:16.998Z,58.70
2019-06-26T14:26:29.456Z,59.00
2019-06-26T14:29:02.711Z,59.10
2019-06-26T14:31:55.115Z,58.60
2019-06-26T14:34:28.043Z,58.90
2019-06-26T14:37:00.077Z,59.10
2019-06-26T14:39:32.361Z,59.20
2019-06-26T14:42:04.793Z,59.00
2019-06-26T14:44:36.971Z,58.90
2019-06-26T14:47:09.336Z,59.30
2019-06-26T14:49:41.634Z,59.10
2019-06-26T14:52:13.747Z,59.30
2019-06-26T14:54:46.388Z,59.60
2019-06-26T14:57:18.657Z,59.20
2019-06-26T14:59:51.120Z,59.80
2019-06-26T15:02:25.965Z,59.80
2019-06-26T15:04:57.991Z,59.70
2019-06-26T15:07:36.054Z,59.50
2019-06-26T15:10:10.196Z,59.80
2019-06-26T15:12:42.262Z,59.60
2019-06-26T15:15:14.974Z,60.00
2019-06-26T15:17:47.044Z,60.20
2019-06-26T15:20:19.848Z,60.20
2019-06-26T15:22:52.399Z,60.30
2019-06-26T15:25:24.627Z,60.60
2019-06-26T15:28:18.257Z,60.70
2019-06-26T15:30:51.042Z,60.50
2019-06-26T15:33:22.955Z,60.60
2019-06-26T15:35:55.099Z,60.60
2019-06-26T15:38:26.961Z,60.90
2019-06-26T15:40:59.091Z,61.00
2019-06-26T15:43:31.802Z,61.00
2019-06-26T15:46:03.926Z,61.00
2019-06-26T15:48:36.164Z,60.80
2019-06-26T15:51:08.446Z,61.10
2019-06-26T15:53:40.469Z,61.20
2019-06-26T15:56:12.392Z,61.30
2019-06-26T15:58:44.173Z,61.50
2019-06-26T16:01:16.236Z,61.90
2019-06-26T16:03:48.454Z,61.70
2019-06-26T16:06:20.628Z,61.90
2019-06-26T16:08:52.869Z,61.90
2019-06-26T16:11:24.890Z,62.20
2019-06-26T16:13:57.308Z,62.30
2019-06-26T16:16:29.868Z,62.30
2019-06-26T16:19:03.354Z,62.30
2019-06-26T16:21:36.202Z,62.60
2019-06-26T16:24:08.505Z,62.60
2019-06-26T16:26:40.532Z,62.60
2019-06-26T16:29:12.612Z,62.70
2019-06-26T16:31:44.668Z,62.60
2019-06-26T16:34:16.762Z,62.90
2019-06-26T16:36:49.081Z,63.30
2019-06-26T16:39:22.512Z,63.00
2019-06-26T16:41:54.782Z,63.30
2019-06-26T16:44:26.712Z,62.90
2019-06-26T16:46:59.395Z,62.90
2019-06-26T16:49:31.920Z,63.00
2019-06-26T16:52:04.009Z,63.00
2019-06-26T16:54:36.258Z,63.30
2019-06-26T16:57:08.595Z,63.20
2019-06-26T16:59:40.412Z,63.30
2019-06-26T17:02:12.517Z,63.70
2019-06-26T17:04:44.435Z,63.40
2019-06-26T17:07:17.155Z,62.90
2019-06-26T17:09:49.646Z,63.00
2019-06-26T17:12:21.954Z,63.30
2019-06-26T17:14:54.293Z,63.50
2019-06-26T17:17:26.608Z,63.70
2019-06-26T17:19:58.607Z,63.60
2019-06-26T17:22:30.581Z,63.10
2019-06-26T17:25:05.830Z,63.10
2019-06-26T17:27:37.992Z,62.40
2019-06-26T17:30:11.251Z,62.30
2019-06-26T17:32:43.293Z,62.50
2019-06-26T17:35:15.847Z,62.30
2019-06-26T17:37:47.982Z,62.50
2019-06-26T17:40:20.630Z,62.90
2019-06-26T17:42:52.877Z,62.60
2019-06-26T17:45:25.003Z,63.70
2019-06-26T17:47:59.444Z,63.60
2019-06-26T17:50:32.027Z,63.50
2019-06-26T17:53:20.326Z,63.90
2019-06-26T17:55:38.756Z,64.30
2019-06-26T17:58:10.815Z,64.50
2019-06-26T18:00:43.377Z,64.70
2019-06-26T18:03:15.580Z,64.60
2019-06-26T18:05:47.520Z,64.30
2019-06-26T18:08:21.781Z,64.60
2019-06-26T18:10:53.847Z,64.40
2019-06-26T18:13:26.277Z,65.20
2019-06-26T18:15:58.413Z,65.00
2019-06-26T18:18:30.454Z,64.90
2019-06-26T18:21:02.653Z,65.30
2019-06-26T18:23:38.238Z,65.80
2019-06-26T18:26:13.540Z,65.30
2019-06-26T18:28:42.390Z,65.60
2019-06-26T18:31:14.591Z,66.00
2019-06-26T18:33:47.505Z,66.00
2019-06-26T18:36:19.760Z,66.30
2019-06-26T18:38:51.855Z,65.80
2019-06-26T18:41:23.723Z,66.60
2019-06-26T18:43:55.922Z,67.00
2019-06-26T18:46:28.270Z,66.80
2019-06-26T18:49:00.841Z,67.20
2019-06-26T18:51:33.026Z,67.30
2019-06-26T18:54:05.641Z,67.70
2019-06-26T18:56:37.596Z,67.70
2019-06-26T18:59:09.574Z,67.40
2019-06-26T19:01:41.477Z,67.50
2019-06-26T19:04:13.751Z,67.80
2019-06-26T19:06:45.908Z,67.80
2019-06-26T19:09:17.935Z,67.90
2019-06-26T19:11:50.074Z,68.00
2019-06-26T19:14:22.440Z,68.10
2019-06-26T19:16:54.504Z,68.20
2019-06-26T19:19:26.846Z,68.40
2019-06-26T19:21:58.697Z,68.60
2019-06-26T19:24:30.704Z,68.60
2019-06-26T19:27:06.525Z,68.70
2019-06-26T19:29:36.459Z,68.70
2019-06-26T19:32:08.665Z,68.50
2019-06-26T19:34:40.446Z,68.80
2019-06-26T19:37:13.345Z,68.90
2019-06-26T19:39:45.865Z,69.00
2019-06-26T19:42:17.933Z,69.10
2019-06-26T19:44:49.819Z,69.50
2019-06-26T19:47:22.046Z,69.40
2019-06-26T19:49:54.252Z,69.50
2019-06-26T19:52:26.601Z,69.60
2019-06-26T19:54:58.644Z,69.70
2019-06-26T19:57:30.659Z,69.80
2019-06-26T20:00:02.817Z,69.90
2019-06-26T20:02:34.988Z,70.00
2019-06-26T20:05:10.326Z,70.80
2019-06-26T20:07:42.306Z,71.40
2019-06-26T20:10:16.421Z,70.20
2019-06-26T20:12:48.517Z,70.70
2019-06-26T20:15:24.183Z,69.60
2019-06-26T20:17:56.294Z,70.10
2019-06-26T20:20:28.575Z,70.30
2019-06-26T20:23:00.841Z,71.10
2019-06-26T20:25:32.913Z,70.80
2019-06-26T20:28:04.912Z,70.90
2019-06-26T20:30:40.077Z,71.30
2019-06-26T20:33:12.183Z,71.00
2019-06-26T20:35:44.208Z,71.40
2019-06-26T20:38:16.961Z,71.80
2019-06-26T20:41:09.156Z,71.50
2019-06-26T20:43:41.440Z,71.80
2019-06-26T20:46:15.565Z,71.70
2019-06-26T20:48:47.511Z,71.70
2019-06-26T20:51:20.925Z,71.80
2019-06-26T20:53:53.326Z,71.60
2019-06-26T20:56:25.920Z,72.60
2019-06-26T20:59:02.405Z,72.20
2019-06-26T21:01:34.493Z,72.20
2019-06-26T21:04:06.648Z,72.60
2019-06-26T21:06:38.981Z,72.50
2019-06-26T21:09:11.413Z,72.80
2019-06-26T21:11:43.568Z,72.70
2019-06-26T21:14:16.084Z,73.10
2019-06-26T21:16:48.093Z,73.10
2019-06-26T21:19:20.756Z,73.40
2019-06-26T21:21:52.890Z,73.40
2019-06-26T21:24:24.960Z,73.60
2019-06-26T21:26:57.457Z,73.30
2019-06-26T21:29:29.636Z,73.20
2019-06-26T21:32:01.681Z,73.50
2019-06-26T21:34:34.021Z,73.60
2019-06-26T21:37:05.971Z,74.20
2019-06-26T21:39:39.216Z,74.20
2019-06-26T21:42:11.471Z,74.20
2019-06-26T21:44:44.403Z,73.90
2019-06-26T21:47:17.126Z,74.10
2019-06-26T21:49:49.437Z,74.60
2019-06-26T21:52:21.552Z,74.50
2019-06-26T21:54:53.570Z,74.80
2019-06-26T21:57:26.148Z,75.00
2019-06-26T21:59:58.128Z,75.10
2019-06-26T22:02:30.270Z,75.60
2019-06-26T22:05:03.579Z,75.70
2019-06-26T22:07:36.086Z,75.60
2019-06-26T22:10:11.381Z,75.90
2019-06-26T22:12:43.508Z,75.50
2019-06-26T22:15:16.851Z,76.00
2019-06-26T22:17:48.775Z,75.90
2019-06-26T22:20:21.287Z,75.70
2019-06-26T22:22:53.409Z,76.10
2019-06-26T22:25:25.731Z,76.30
2019-06-26T22:27:57.928Z,76.30
2019-06-26T22:30:30.871Z,76.50
2019-06-26T22:33:03.018Z,76.80
2019-06-26T22:35:35.184Z,76.50
2019-06-26T22:38:08.060Z,76.80
2019-06-26T22:40:40.469Z,76.80
2019-06-26T22:43:33.329Z,76.70
2019-06-26T22:46:06.200Z,76.70
2019-06-26T22:48:38.226Z,76.70
2019-06-26T22:51:10.923Z,77.20
2019-06-26T22:53:42.970Z,77.20
2019-06-26T22:56:14.987Z,77.20
2019-06-26T22:58:47.187Z,77.10
2019-06-26T23:01:19.354Z,77.10
2019-06-26T23:03:51.381Z,77.30
2019-06-26T23:06:23.589Z,77.50
2019-06-26T23:08:55.717Z,77.30
2019-06-26T23:11:27.866Z,77.20
2019-06-26T23:14:00.489Z,77.30
2019-06-26T23:16:32.761Z,77.10
2019-06-26T23:19:04.810Z,77.50
2019-06-26T23:21:36.959Z,77.30
2019-06-26T23:24:08.868Z,77.30
2019-06-26T23:26:41.140Z,77.20
2019-06-26T23:29:13.710Z,77.00
2019-06-26T23:31:45.890Z,77.30
2019-06-26T23:34:18.165Z,77.20
2019-06-26T23:36:49.931Z,77.30
2019-06-26T23:39:22.290Z,77.50
2019-06-26T23:41:54.844Z,77.80
2019-06-26T23:44:27.475Z,77.50
2019-06-26T23:47:00.697Z,77.40
2019-06-26T23:49:33.214Z,77.40
2019-06-26T23:52:05.346Z,77.20
2019-06-26T23:54:38.293Z,77.30
2019-06-26T23:57:10.159Z,76.70
2019-06-26T23:59:42.055Z,76.90
